Forside
METAR-TAF:

METAR-TAF

Lufthavne :

Aarhus Lufthavn

Aarhus, Danmark

Breddekreds: 56-18N, længdekreds: 010-37E, højde: 23 m

Aktuelle vejr

Denne rapport blev lavet for 35 minutter siden, kl. 10:20 UTC
Vind 4 kt fra sydsydvest, varierende mellem syd og vestsydvest
Temperatur 10°C
Fugtighed 93%
Tryk 1025 hPa
Sigt 10 km eller mere

METAR: EKAH 141020Z AUTO 21004KT 170V250 9999NDV NCD 10/09 Q1025

Tid: 11:55 (10:55 UTC)

Vejrudsigter

Denne rapport blev lavet for 5 timer og 55 minutter siden, kl. 05:00 UTC
Foreløbig gælder fra 14 på 06 UTC til 15 på 06 UTC
Vind 8 kt fra sydvest
Sigt 10 km eller mere
Brudte skyer i en højde af 3000 ft
Midlertidig
fra 14 på 06 UTC til 14 på 09 UTC
Brudte skyer i en højde af 1200 ft
Midlertidig
fra 14 på 16 UTC til 15 på 03 UTC
Sigt: 3000 m
Brudte skyer i en højde af 600 ft
let regn, finregn, dis
Midlertidig
fra 15 på 03 UTC til 15 på 06 UTC
Sigt: 3000 m
dis

TAF: EKAH 140500Z 1406/1506 22008KT 9999 BKN030 TEMPO 1406/1409 BKN012 TEMPO 1416/1503 3000 -RADZ BR BKN006 TEMPO 1503/1506 3000 BR

Vejrobservationer og prognoser fra mere end 4000 lufthavne (METAR og TAF).

De gule og røde prikker repræsenterer de meteorologiske stationer.

Flyt musen over at se navnet på stationen.

Så klik over at se vejr observationer og prognoser.

At skifte det kort: Klik på de grønne knapper med et sort kors for at zoome ind; på den grønne knap med en bindestreg for at zoome ud; eller på de grønne pile for tilstødende kort.


METAR-TAF: